Latest Weather Observations for Archerfield

IDQ60801

Issued at 9:32 am EST Monday 15 February 2016 (issued every 30 minutes, with the page automatically refreshed every 10 minutes)

About weather observations | Map of weather stations | Latest weather observations for QLD | Other Formats
Station Details ID: 040211 Name: ARCHERFIELD AIRPORT Lat: -27.57 Lon: 153.01 Height: 12.5 m
Data from the previous 72 hours. | See also: Recent months at Archerfield
Date/Time
EST
Temp
°C
App
Temp
°C
Dew
Point
Rel
Hum
%
Delta-T
°C
Wind Press
QNH
hPa
Press
MSL
hPa
Rain
since 9 am
mm
Dir
 
Spd
km/h
Gust
km/h
Spd
kts
Gust
kts
15/09:30am 28.3 28.4 19.2 57 5.9 S 17 28 9 15 1010.2 1010.1 0.0
15/09:00am 27.4 28.2 18.1 57 5.9 SSW 11 20 6 11 1010.2 1010.1 0.0
15/08:30am 26.1 26.1 18.2 61 5.0 SW 15 20 8 11 1010.3 1010.2 0.0
15/08:00am 24.4 25.0 18.6 70 3.7 SW 13 20 7 11 1010.3 1010.2 0.0
15/07:30am 23.0 24.6 19.2 79 2.4 WSW 9 13 5 7 1010.0 1009.9 0.0
15/07:00am 21.8 23.0 19.0 84 1.8 W 11 13 6 7 1009.6 1009.5 0.0
15/06:30am 20.7 22.4 18.6 88 1.3 W 7 9 4 5 1009.3 1009.2 0.0
15/06:00am 19.9 21.6 18.6 92 0.8 SW 7 9 4 5 1009.1 1009.0 0.0
15/05:30am 19.4 20.9 18.1 92 0.8 WSW 7 9 4 5 1008.9 1008.8 0.0
15/05:00am 19.2 21.2 17.9 92 0.8 WSW 4 9 2 5 1008.8 1008.7 0.0
15/04:30am 19.9 21.5 18.2 90 1.1 SW 7 9 4 5 1008.6 1008.5 0.0
15/04:00am 20.3 22.2 18.6 90 1.1 SSW 6 6 3 3 1008.3 1008.2 0.0
15/03:30am 20.0 21.3 18.5 91 0.9 SSW 9 11 5 6 1008.2 1008.1 0.0
15/03:00am 19.6 21.1 17.6 88 1.2 SW 6 9 3 5 1008.3 1008.2 0.0
15/02:30am 20.6 23.0 18.7 89 1.2 SSW 4 7 2 4 1008.2 1008.1 0.0
15/02:00am 20.9 23.0 19.0 89 1.2 WSW 6 7 3 4 1008.2 1008.1 0.0
15/01:30am 21.3 23.6 19.4 89 1.2 SW 6 7 3 4 1008.4 1008.3 0.0
15/01:00am 21.1 23.0 19.0 88 1.3 SW 7 9 4 5 1008.7 1008.6 0.0
15/12:30am 21.0 22.9 18.9 88 1.3 WSW 7 11 4 6 1008.9 1008.8 0.0
15/12:00am 21.4 23.6 19.3 88 1.3 SSW 6 7 3 4 1009.0 1008.9 0.0
 
Date/Time
EST
Temp
°C
App
Temp
°C
Dew
Point
Rel
Hum
%
Delta-T
°C
Wind Press
QNH
hPa
Press
MSL
hPa
Rain
since 9 am
mm
Dir
 
Spd
km/h
Gust
km/h
Spd
kts
Gust
kts
14/11:30pm 21.6 23.6 19.2 86 1.5 SSW 7 9 4 5 1009.1 1009.0 0.0
14/11:00pm 22.7 24.9 19.5 82 2.0 SSE 7 11 4 6 1009.3 1009.2 0.0
14/10:30pm 21.6 23.5 18.6 83 1.9 ENE 6 6 3 3 1009.4 1009.3 0.0
14/10:00pm 23.6 25.9 19.9 80 2.4 S 7 9 4 5 1009.4 1009.3 0.0
14/09:30pm 23.8 25.2 20.3 81 2.3 SE 13 19 7 10 1009.5 1009.4 0.0
14/09:00pm 24.0 25.6 19.9 78 2.6 SE 11 15 6 8 1009.3 1009.2 0.0
14/08:30pm 24.4 26.1 20.1 77 2.8 ESE 11 17 6 9 1008.8 1008.7 0.0
14/08:00pm 25.0 26.4 20.3 75 3.1 ESE 13 19 7 10 1008.6 1008.5 0.0
14/07:30pm 25.6 26.2 20.2 72 3.5 ESE 17 24 9 13 1008.5 1008.4 0.0
14/07:00pm 26.2 26.2 19.8 68 4.2 SE 19 28 10 15 1008.1 1008.0 0.0
14/06:30pm 27.4 27.7 19.5 62 5.1 ESE 17 22 9 12 1007.7 1007.6 0.0
14/06:00pm 28.5 28.1 19.4 57 5.9 ESE 20 24 11 13 1007.1 1007.0 0.0
14/05:30pm 29.5 28.4 19.5 55 6.5 ESE 24 32 13 17 1006.6 1006.5 0.0
14/05:00pm 30.3 29.5 19.3 51 7.2 SE 22 28 12 15 1006.4 1006.3 0.0
14/04:30pm 30.7 29.4 19.1 50 7.6 SE 24 32 13 17 1006.2 1006.1 0.0
14/04:00pm 31.6 30.8 19.2 47 8.1 ESE 22 30 12 16 1006.2 1006.1 0.0
14/03:30pm 31.5 30.0 19.5 49 7.9 ESE 26 37 14 20 1006.2 1006.1 0.0
14/03:00pm 32.2 30.7 19.5 47 8.4 SE 26 35 14 19 1006.3 1006.2 0.0
14/02:30pm 32.1 30.4 19.0 45 8.6 SE 26 35 14 19 1006.1 1006.0 0.0
14/02:00pm 31.4 31.7 18.0 44 8.6 E 13 26 7 14 1006.1 1006.0 0.0
14/01:30pm 31.3 31.1 18.6 46 8.2 ESE 17 26 9 14 1006.2 1006.1 0.0
14/01:00pm 32.3 31.5 18.1 42 9.2 SSE 19 24 10 13 1006.3 1006.2 0.0
14/12:30pm 32.0 33.5 18.9 45 8.5 SW 9 17 5 9 1006.5 1006.4 0.0
14/12:00pm 31.4 31.4 17.3 43 9.0 SSW 13 19 7 10 1007.0 1006.9 0.0
14/11:30am 31.1 31.0 17.8 45 8.5 SW 15 24 8 13 1007.5 1007.4 0.0
14/11:00am 29.5 29.9 17.3 47 7.7 SW 11 17 6 9 1008.0 1007.9 0.0
14/10:30am 29.0 29.4 17.2 49 7.4 SSE 11 22 6 12 1008.5 1008.4 0.0
14/10:00am 27.9 26.6 16.8 50 6.9 SE 19 26 10 14 1008.8 1008.7 0.0
14/09:30am 27.0 26.5 16.9 54 6.3 S 15 24 8 13 1009.0 1008.9 0.0
14/09:00am 26.5 26.4 17.0 56 5.9 S 13 20 7 11 1009.1 1009.0 0.0
14/08:30am 25.8 24.9 16.9 58 5.5 SSW 17 22 9 12 1008.9 1008.8 0.0
14/08:00am 24.8 24.3 16.8 61 4.9 SSW 15 20 8 11 1008.9 1008.8 0.0
14/07:30am 22.7 23.2 16.5 68 3.8 SW 9 11 5 6 1009.0 1008.9 0.0
14/07:00am 21.4 22.0 16.8 75 2.8 WSW 9 11 5 6 1009.2 1009.1 0.0
14/06:30am 19.9 20.8 16.7 82 1.9 WSW 7 9 4 5 1009.1 1009.0 0.0
14/06:00am 18.9 19.8 16.5 86 1.4 WSW 7 9 4 5 1009.0 1008.9 0.0
14/05:30am 18.6 18.9 16.0 85 1.5 WSW 9 9 5 5 1008.8 1008.7 0.0
14/05:00am 18.8 19.1 16.0 84 1.7 WSW 9 11 5 6 1008.5 1008.4 0.0
14/04:30am 19.4 19.3 15.9 80 2.1 SW 11 15 6 8 1008.2 1008.1 0.0
14/04:00am 19.7 19.3 16.2 80 2.1 SSW 13 15 7 8 1008.2 1008.1 0.0
14/03:30am 19.6 19.5 16.1 80 2.1 SSW 11 13 6 7 1008.3 1008.2 0.0
14/03:00am 20.2 19.8 16.2 78 2.4 SSW 13 15 7 8 1008.4 1008.3 0.0
14/02:30am 20.3 19.9 16.3 78 2.4 SSW 13 17 7 9 1008.5 1008.4 0.0
14/02:00am 20.3 20.3 16.3 78 2.4 SSW 11 15 6 8 1008.9 1008.8 0.0
14/01:30am 20.4 20.1 16.4 78 2.4 SSW 13 15 7 8 1009.1 1009.0 0.0
14/01:00am 20.3 20.4 16.5 79 2.3 SSW 11 13 6 7 1009.6 1009.5 0.0
14/12:30am 20.2 21.1 16.6 80 2.2 SSW 7 9 4 5 1009.9 1009.8 0.0
14/12:00am 20.6 21.4 16.4 77 2.5 SSW 7 9 4 5 1010.3 1010.2 0.0
 
Date/Time
EST
Temp
°C
App
Temp
°C
Dew
Point
Rel
Hum
%
Delta-T
°C
Wind Press
QNH
hPa
Press
MSL
hPa
Rain
since 9 am
mm
Dir
 
Spd
km/h
Gust
km/h
Spd
kts
Gust
kts
13/11:30pm 20.6 21.0 16.2 76 2.6 SW 9 13 5 7 1010.5 1010.4 0.0
13/11:00pm 21.4 21.9 15.5 69 3.5 SSW 7 9 4 5 1010.7 1010.6 0.0
13/10:30pm 22.0 22.1 15.6 67 3.8 SSW 9 11 5 6 1010.6 1010.5 0.0
13/10:00pm 22.9 22.4 16.0 65 4.2 S 13 19 7 10 1010.7 1010.6 0.0
13/09:30pm 23.3 22.2 16.4 65 4.2 SSE 17 24 9 13 1010.7 1010.6 0.0
13/09:00pm 23.2 23.2 17.2 69 3.7 SSE 13 20 7 11 1010.8 1010.7 0.0
13/08:30pm 23.4 22.4 17.6 70 3.6 SE 19 26 10 14 1010.9 1010.8 0.0
13/08:00pm 23.7 23.5 17.7 69 3.7 SE 15 20 8 11 1010.9 1010.8 0.0
13/07:30pm 24.2 23.7 17.7 67 4.1 SE 17 20 9 11 1010.5 1010.4 0.0
13/07:00pm 24.6 23.7 17.8 66 4.3 SE 19 28 10 15 1010.3 1010.2 0.0
13/06:30pm 25.0 24.8 17.7 64 4.6 SSE 15 20 8 11 1009.9 1009.8 0.0
13/06:00pm 25.7 24.9 18.1 63 4.8 SSE 19 28 10 15 1009.7 1009.6 0.0
13/05:30pm 25.7 24.8 18.1 63 4.8 SE 20 30 11 16 1009.5 1009.4 0.0
13/05:00pm 26.0 24.8 18.4 63 4.8 SE 22 32 12 17 1009.7 1009.6 0.0
13/04:30pm 26.6 24.2 18.2 60 5.3 SE 28 39 15 21 1009.5 1009.4 0.0
13/04:00pm 26.3 23.6 18.4 61 5.0 SE 30 39 16 21 1009.5 1009.4 0.0
13/03:30pm 27.5 25.5 18.2 57 5.9 SE 26 39 14 21 1009.4 1009.3 0.0
13/03:00pm 27.2 24.5 18.5 59 5.6 SE 30 39 16 21 1009.5 1009.4 0.0
13/02:30pm 27.6 25.7 18.6 58 5.8 SE 26 37 14 20 1009.5 1009.4 0.0
13/02:00pm 27.5 24.9 17.9 55 6.1 SSE 28 39 15 21 1009.7 1009.6 0.0
13/01:39pm 28.2 25.7 18.0 54 6.5 SE 28 46 15 25 1009.8 1009.7 0.0
13/01:30pm 28.3 25.2 18.4 55 6.3 SE 32 41 17 22 1009.9 1009.8 0.0
13/01:17pm 28.7 26.0 18.5 54 6.5 SSE 30 48 16 26 1010.1 1010.0 0.0
13/01:00pm 27.5 25.3 18.8 59 5.6 SSE 28 37 15 20 1010.4 1010.3 0.0
13/12:30pm 25.1 23.8 19.9 73 3.4 SE 26 35 14 19 1011.1 1011.0 0.0
13/12:00pm 24.4 21.6 19.5 74 3.1 ESE 33 44 18 24 1011.4 1011.3 0.0
13/11:30am 27.0 24.6 18.3 59 5.5 SE 28 48 15 26 1011.1 1011.0 0.0
13/11:29am 26.8 24.2 17.8 57 5.7 SE 28 48 15 26 1011.1 1011.0 0.0
13/11:00am 25.8 23.5 18.5 64 4.6 SE 28 35 15 19 1011.4 1011.3 0.0
13/10:34am 26.1 23.6 18.0 61 5.1 SSE 28 46 15 25 1011.2 1011.1 0.0
13/10:30am 27.0 25.4 18.3 59 5.5 SSE 24 32 13 17 1011.2 1011.1 0.0
13/10:00am 26.5 25.5 16.7 55 6.1 SSE 17 28 9 15 1011.3 1011.2 0.0
13/09:30am 26.9 25.0 16.8 54 6.3 SSE 22 33 12 18 1011.4 1011.3 0.0
13/09:00am 25.9 25.1 16.2 55 6.0 S 15 24 8 13 1011.7 1011.6 0.0
13/08:30am 25.0 24.2 17.0 61 5.0 S 17 22 9 12 1011.8 1011.7 0.0
13/08:00am 24.7 23.2 16.7 61 4.9 SSW 20 28 11 15 1011.7 1011.6 0.0
13/07:30am 23.4 23.2 16.7 66 4.1 SSW 13 17 7 9 1011.9 1011.8 0.0
13/07:00am 22.4 23.5 17.1 72 3.3 WSW 7 9 4 5 1011.8 1011.7 0.0
13/06:30am 21.0 22.0 16.8 77 2.6 SW 7 11 4 6 1011.6 1011.5 0.0
13/06:00am 19.8 20.4 16.8 83 1.8 SW 9 11 5 6 1011.1 1011.0 0.0
13/05:30am 19.6 20.5 16.6 83 1.8 SSW 7 9 4 5 1011.0 1010.9 0.0
13/05:00am 19.2 19.6 16.4 84 1.7 SW 9 13 5 7 1010.7 1010.6 0.0
13/04:30am 19.2 19.3 16.6 85 1.6 SW 11 13 6 7 1010.6 1010.5 0.0
13/04:00am 19.3 19.7 16.3 83 1.8 SSW 9 11 5 6 1010.8 1010.7 0.0
13/03:30am 19.5 20.3 16.3 82 1.9 SSW 7 9 4 5 1010.9 1010.8 0.0
13/03:00am 19.4 20.1 16.1 81 2.0 SSW 7 9 4 5 1011.0 1010.9 0.0
13/02:30am 19.6 20.3 16.1 80 2.1 SSW 7 9 4 5 1011.2 1011.1 0.0
13/02:00am 19.8 20.4 15.7 77 2.4 SSW 7 9 4 5 1011.4 1011.3 0.0
13/01:30am 19.9 20.6 16.0 78 2.3 SW 7 11 4 6 1011.5 1011.4 0.0
13/01:00am 20.0 20.1 15.6 76 2.6 SSW 9 11 5 6 1011.4 1011.3 0.0
13/12:30am 20.4 20.5 15.6 74 2.9 SSW 9 11 5 6 1012.1 1012.0 0.0
13/12:00am 21.2 20.9 15.5 70 3.4 SSW 11 17 6 9 1012.3 1012.2 0.0
 
Date/Time
EST
Temp
°C
App
Temp
°C
Dew
Point
Rel
Hum
%
Delta-T
°C
Wind Press
QNH
hPa
Press
MSL
hPa
Rain
since 9 am
mm
Dir
 
Spd
km/h
Gust
km/h
Spd
kts
Gust
kts
12/11:30pm 21.7 21.6 16.0 70 3.4 SSW 11 13 6 7 1012.6 1012.5 0.0
12/11:00pm 22.3 22.7 16.3 69 3.6 SSW 9 15 5 8 1013.1 1013.0 0.0
12/10:30pm 22.5 22.5 16.3 68 3.8 SSE 11 17 6 9 1013.3 1013.2 0.0
12/10:00pm 22.8 22.5 16.4 67 3.9 S 13 17 7 9 1013.2 1013.1 0.0
12/09:30pm 23.5 22.8 16.5 65 4.3 SSE 15 20 8 11 1013.4 1013.3 0.0
12/09:00pm 23.6 23.0 16.6 65 4.3 SSE 15 22 8 12 1013.3 1013.2 0.0
12/08:30pm 24.1 23.2 16.9 64 4.4 SSE 17 24 9 13 1013.4 1013.3 0.0
12/08:00pm 24.4 23.7 16.4 61 4.9 SSE 15 20 8 11 1013.1 1013.0 0.0
12/07:30pm 24.9 23.6 15.8 57 5.5 SSE 17 28 9 15 1012.9 1012.8 0.0
12/07:00pm 24.9 23.6 16.9 61 4.9 SE 19 24 10 13 1012.9 1012.8 0.0
12/06:30pm 25.7 23.3 16.3 56 5.8 SE 24 39 13 21 1012.6 1012.5 0.0
12/06:00pm 26.5 22.5 16.1 52 6.4 ESE 32 41 17 22 1012.3 1012.2 0.0
12/05:30pm 27.0 23.0 16.3 52 6.6 ESE 32 39 17 21 1012.0 1011.9 0.0
12/05:00pm 27.8 23.9 16.4 50 7.1 ESE 32 46 17 25 1011.6 1011.5 0.0
12/04:30pm 27.6 23.6 16.2 49 7.0 ESE 32 43 17 23 1011.5 1011.4 0.0
12/04:06pm 29.2 25.7 18.0 51 7.1 SE 33 52 18 28 1011.3 1011.2 0.0
12/04:00pm 28.5 23.5 17.1 50 7.2 SE 39 52 21 28 1011.3 1011.2 0.0
12/03:45pm 29.1 25.3 16.6 46 7.8 ESE 32 50 17 27 1011.1 1011.0 0.0
12/03:30pm 29.3 25.5 17.2 48 7.6 ESE 33 44 18 24 1011.2 1011.1 0.0
12/03:00pm 27.8 23.0 16.7 50 6.9 ESE 37 50 20 27 1011.4 1011.3 0.0
12/02:30pm 29.0 25.6 17.8 50 7.1 ESE 32 54 17 29 1011.3 1011.2 0.0
12/02:27pm 28.4 24.7 17.0 50 7.1 ESE 32 54 17 29 1011.4 1011.3 0.0
12/02:00pm 29.2 25.5 17.4 49 7.5 ESE 33 46 18 25 1011.5 1011.4 0.0
12/01:30pm 30.5 28.0 18.9 50 7.5 ESE 30 41 16 22 1011.5 1011.4 0.0
12/01:00pm 29.4 26.1 17.9 50 7.3 ESE 32 43 17 23 1011.8 1011.7 0.0
12/12:30pm 29.0 25.8 17.2 49 7.4 ESE 30 44 16 24 1011.9 1011.8 0.0
12/12:06pm 29.8 27.0 17.3 47 7.9 ESE 28 46 15 25 1012.0 1011.9 0.0
12/12:00pm 30.0 27.7 18.4 49 7.5 ESE 28 37 15 20 1012.0 1011.9 0.0
12/11:30am 29.6 26.4 18.1 50 7.4 SE 32 43 17 23 1012.4 1012.3 0.0
12/11:00am 27.5 24.7 17.4 54 6.4 SE 28 41 15 22 1012.5 1012.4 0.0
12/10:30am 29.4 26.8 17.9 50 7.3 ESE 28 39 15 21 1012.7 1012.6 0.0
12/10:00am 29.2 26.9 17.7 50 7.3 SE 26 37 14 20 1013.0 1012.9 0.0

Other Formats:

Comma delimited format used in spreadsheet applications
http://www.bom.gov.au/fwo/IDQ60801/IDQ60801.94575.axf

JavaScript Object Notation format (JSON) in row-major order
http://www.bom.gov.au/fwo/IDQ60801/IDQ60801.94575.json